createdAt,value
2018-03-21T00:01:00.677Z,102010
2018-03-21T00:03:29.775Z,102009
2018-03-21T00:05:58.830Z,102015
2018-03-21T00:08:27.238Z,102010
2018-03-21T00:10:55.600Z,102012
2018-03-21T00:13:23.948Z,102022
2018-03-21T00:15:52.543Z,102024
2018-03-21T00:18:20.984Z,102030
2018-03-21T00:20:49.363Z,102026
2018-03-21T00:23:17.629Z,102033
2018-03-21T00:25:46.825Z,102043
2018-03-21T00:28:17.187Z,102033
2018-03-21T00:30:45.509Z,102037
2018-03-21T00:33:14.084Z,102038
2018-03-21T00:35:42.377Z,102042
2018-03-21T00:38:11.493Z,102043
2018-03-21T00:40:39.778Z,102051
2018-03-21T00:43:08.227Z,102048
2018-03-21T00:45:36.584Z,102053
2018-03-21T00:48:04.860Z,102055
2018-03-21T00:50:33.170Z,102057
2018-03-21T00:53:01.481Z,102058
2018-03-21T00:55:29.787Z,102055
2018-03-21T00:57:59.976Z,102057
2018-03-21T01:00:28.282Z,102060
2018-03-21T01:02:56.660Z,102061
2018-03-21T01:05:25.080Z,102061
2018-03-21T01:07:53.521Z,102057
2018-03-21T01:10:21.883Z,102056
2018-03-21T01:12:50.348Z,102059
2018-03-21T01:15:18.683Z,102056
2018-03-21T01:17:47.758Z,102056
2018-03-21T01:20:16.069Z,102056
2018-03-21T01:22:44.378Z,102051
2018-03-21T01:25:13.617Z,102048
2018-03-21T01:27:42.698Z,102040
2018-03-21T01:30:11.018Z,102043
2018-03-21T01:32:39.333Z,102047
2018-03-21T01:35:07.664Z,102052
2018-03-21T01:37:36.747Z,102051
2018-03-21T01:40:05.828Z,102047
2018-03-21T01:42:34.257Z,102055
2018-03-21T01:45:02.538Z,102065
2018-03-21T01:47:30.972Z,102067
2018-03-21T01:50:00.099Z,102067
2018-03-21T01:52:28.420Z,102069
2018-03-21T01:54:56.846Z,102067
2018-03-21T01:57:25.392Z,102070
2018-03-21T01:59:53.799Z,102067
2018-03-21T02:02:22.998Z,102066
2018-03-21T02:04:52.088Z,102071
2018-03-21T02:07:21.356Z,102076
2018-03-21T02:09:49.684Z,102073
2018-03-21T02:12:18.024Z,102066
2018-03-21T02:14:46.341Z,102067
2018-03-21T02:17:14.737Z,102064
2018-03-21T02:19:43.031Z,102062
2018-03-21T02:22:11.337Z,102066
2018-03-21T02:24:39.662Z,102070
2018-03-21T02:27:07.960Z,102066
2018-03-21T02:29:36.265Z,102065
2018-03-21T02:32:05.414Z,102063
2018-03-21T02:34:33.944Z,102059
2018-03-21T02:37:03.189Z,102058
2018-03-21T02:39:31.653Z,102060
2018-03-21T02:42:00.100Z,102064
2018-03-21T02:44:29.593Z,102068
2018-03-21T02:46:58.131Z,102070
2018-03-21T02:49:27.510Z,102070
2018-03-21T02:51:55.998Z,102066
2018-03-21T02:54:24.395Z,102071
2018-03-21T02:56:53.026Z,102071
2018-03-21T02:59:21.686Z,102070
2018-03-21T03:01:50.176Z,102075
2018-03-21T03:04:19.563Z,102076
2018-03-21T03:06:48.322Z,102070
2018-03-21T03:09:16.987Z,102071
2018-03-21T03:11:45.388Z,102074
2018-03-21T03:14:13.710Z,102078
2018-03-21T03:16:42.268Z,102076
2018-03-21T03:19:10.584Z,102080
2018-03-21T03:21:39.007Z,102079
2018-03-21T03:24:07.358Z,102082
2018-03-21T03:26:36.567Z,102077
2018-03-21T03:29:07.048Z,102077
2018-03-21T03:31:35.555Z,102080
2018-03-21T03:34:03.828Z,102082
2018-03-21T03:36:32.108Z,102089
2018-03-21T03:39:00.365Z,102089
2018-03-21T03:41:29.427Z,102088
2018-03-21T03:43:57.743Z,102088
2018-03-21T03:46:26.963Z,102084
2018-03-21T03:48:56.099Z,102087
2018-03-21T03:51:24.364Z,102088
2018-03-21T03:53:52.661Z,102089
2018-03-21T03:56:21.852Z,102085
2018-03-21T03:58:50.187Z,102086
2018-03-21T04:01:19.287Z,102086
2018-03-21T04:03:48.539Z,102093
2018-03-21T04:06:16.838Z,102085
2018-03-21T04:08:45.277Z,102091
2018-03-21T04:11:13.683Z,102092
2018-03-21T04:13:42.057Z,102096
2018-03-21T04:16:10.538Z,102094
2018-03-21T04:18:38.863Z,102095
2018-03-21T04:21:07.389Z,102105
2018-03-21T04:23:35.818Z,102098
2018-03-21T04:26:04.992Z,102097
2018-03-21T04:28:33.348Z,102091
2018-03-21T04:31:01.738Z,102095
2018-03-21T04:33:30.897Z,102091
2018-03-21T04:35:59.400Z,102100
2018-03-21T04:38:27.760Z,102105
2018-03-21T04:40:56.138Z,102099
2018-03-21T04:43:24.443Z,102104
2018-03-21T04:45:52.873Z,102096
2018-03-21T04:48:21.274Z,102101
2018-03-21T04:50:49.725Z,102095
2018-03-21T04:53:18.176Z,102093
2018-03-21T04:55:46.591Z,102094
2018-03-21T04:58:16.095Z,102098
2018-03-21T05:00:44.556Z,102097
2018-03-21T05:03:13.969Z,102096
2018-03-21T05:05:42.299Z,102092
2018-03-21T05:08:11.453Z,102093
2018-03-21T05:10:39.769Z,102093
2018-03-21T05:13:08.103Z,102100
2018-03-21T05:15:36.410Z,102095
2018-03-21T05:18:04.686Z,102098
2018-03-21T05:20:32.996Z,102094
2018-03-21T05:23:02.334Z,102096
2018-03-21T05:25:30.805Z,102100
2018-03-21T05:27:59.325Z,102101
2018-03-21T05:30:27.648Z,102100
2018-03-21T05:32:56.124Z,102096
2018-03-21T05:35:24.424Z,102097
2018-03-21T05:37:52.734Z,102093
2018-03-21T05:40:21.030Z,102089
2018-03-21T05:42:49.354Z,102096
2018-03-21T05:45:17.998Z,102097
2018-03-21T05:47:46.544Z,102099
2018-03-21T05:50:15.614Z,102100
2018-03-21T05:52:43.910Z,102106
2018-03-21T05:55:12.200Z,102109
2018-03-21T05:57:40.512Z,102120
2018-03-21T06:00:08.794Z,102120
2018-03-21T06:02:37.160Z,102118
2018-03-21T06:05:05.500Z,102114
2018-03-21T06:07:33.960Z,102111
2018-03-21T06:10:02.244Z,102110
2018-03-21T06:12:30.663Z,102114
2018-03-21T06:14:59.205Z,102120
2018-03-21T06:17:27.479Z,102125
2018-03-21T06:19:55.823Z,102124
2018-03-21T06:22:24.146Z,102126
2018-03-21T06:24:52.594Z,102127
2018-03-21T06:27:21.832Z,102129
2018-03-21T06:29:50.294Z,102117
2018-03-21T06:32:18.733Z,102116
2018-03-21T06:34:47.260Z,102132
2018-03-21T06:37:15.578Z,102134
2018-03-21T06:39:44.280Z,102140
2018-03-21T06:42:12.626Z,102136
2018-03-21T06:44:40.918Z,102149
2018-03-21T06:47:09.199Z,102147
2018-03-21T06:49:38.435Z,102151
2018-03-21T06:52:06.731Z,102155
2018-03-21T06:54:35.077Z,102162
2018-03-21T06:57:03.511Z,102170
2018-03-21T06:59:31.875Z,102176
2018-03-21T07:02:00.416Z,102178
2018-03-21T07:04:28.786Z,102181
2018-03-21T07:06:58.126Z,102185
2018-03-21T07:09:26.484Z,102197
2018-03-21T07:11:54.810Z,102197
2018-03-21T07:14:41.048Z,102201
2018-03-21T07:17:09.416Z,102201
2018-03-21T07:19:38.975Z,102202
2018-03-21T07:22:07.250Z,102201
2018-03-21T07:24:35.551Z,102203
2018-03-21T07:27:04.176Z,102205
2018-03-21T07:29:32.555Z,102199
2018-03-21T07:32:01.037Z,102199
2018-03-21T07:34:29.376Z,102197
2018-03-21T07:36:57.926Z,102198
2018-03-21T07:39:26.328Z,102195
2018-03-21T07:41:54.979Z,102194
2018-03-21T07:44:23.305Z,102190
2018-03-21T07:46:51.644Z,102193
2018-03-21T07:49:19.974Z,102197
2018-03-21T07:51:49.059Z,102206
2018-03-21T07:54:18.292Z,102203
2018-03-21T07:56:47.046Z,102208
2018-03-21T07:59:15.504Z,102209
2018-03-21T08:01:43.807Z,102212
2018-03-21T08:04:14.002Z,102212
2018-03-21T08:06:42.451Z,102214
2018-03-21T08:09:10.763Z,102216
2018-03-21T08:11:39.153Z,102216
2018-03-21T08:14:07.559Z,102218
2018-03-21T08:16:36.790Z,102220
2018-03-21T08:19:05.247Z,102220
2018-03-21T08:21:33.562Z,102223
2018-03-21T08:24:01.986Z,102229
2018-03-21T08:26:31.090Z,102229
2018-03-21T08:28:59.596Z,102232
2018-03-21T08:31:27.967Z,102236
2018-03-21T08:33:56.830Z,102236
2018-03-21T08:36:25.137Z,102231
2018-03-21T08:38:53.474Z,102242
2018-03-21T08:41:21.827Z,102241
2018-03-21T08:43:50.182Z,102238
2018-03-21T08:46:18.621Z,102236
2018-03-21T08:48:47.782Z,102246
2018-03-21T08:51:16.465Z,102239
2018-03-21T08:53:46.387Z,102248
2018-03-21T08:56:14.873Z,102244
2018-03-21T08:58:43.209Z,102250
2018-03-21T09:01:11.582Z,102244
2018-03-21T09:03:41.004Z,102251
2018-03-21T09:06:09.554Z,102248
2018-03-21T09:08:38.051Z,102246
2018-03-21T09:11:06.386Z,102251
2018-03-21T09:13:35.598Z,102258
2018-03-21T09:16:04.057Z,102269
2018-03-21T09:18:32.366Z,102262
2018-03-21T09:21:00.903Z,102266
2018-03-21T09:23:30.020Z,102259
2018-03-21T09:25:59.148Z,102257
2018-03-21T09:28:27.609Z,102254
2018-03-21T09:30:56.718Z,102264
2018-03-21T09:33:25.046Z,102259
2018-03-21T09:35:55.045Z,102259
2018-03-21T09:38:23.371Z,102255
2018-03-21T09:40:52.603Z,102253
2018-03-21T09:43:21.099Z,102258
2018-03-21T09:45:49.594Z,102255
2018-03-21T09:48:17.925Z,102251
2018-03-21T09:50:46.421Z,102256
2018-03-21T09:53:14.701Z,102262
2018-03-21T09:55:43.005Z,102255
2018-03-21T09:58:11.394Z,102256
2018-03-21T10:00:39.719Z,102249
2018-03-21T10:03:08.921Z,102244
2018-03-21T10:05:37.372Z,102242
2018-03-21T10:08:06.748Z,102237
2018-03-21T10:10:35.030Z,102229
2018-03-21T10:13:03.392Z,102235
2018-03-21T10:15:31.746Z,102225
2018-03-21T10:18:00.081Z,102220
2018-03-21T10:20:29.160Z,102223
2018-03-21T10:22:58.226Z,102225
2018-03-21T10:25:26.676Z,102230
2018-03-21T10:27:55.236Z,102219
2018-03-21T10:30:23.563Z,102218
2018-03-21T10:32:52.167Z,102217
2018-03-21T10:35:21.772Z,102219
2018-03-21T10:37:50.867Z,102226
2018-03-21T10:40:19.205Z,102225
2018-03-21T10:42:47.535Z,102232
2018-03-21T10:45:15.821Z,102234
2018-03-21T10:47:45.047Z,102242
2018-03-21T10:50:13.357Z,102244
2018-03-21T10:52:41.808Z,102245
2018-03-21T10:55:10.167Z,102235
2018-03-21T10:57:38.469Z,102243
2018-03-21T11:00:06.877Z,102229
2018-03-21T11:02:40.771Z,102236
2018-03-21T11:05:09.238Z,102230
2018-03-21T11:07:37.600Z,102235
2018-03-21T11:10:07.160Z,102231
2018-03-21T11:12:35.667Z,102226
2018-03-21T11:15:04.930Z,102219
2018-03-21T11:17:33.241Z,102216
2018-03-21T11:20:02.327Z,102211
2018-03-21T11:22:31.601Z,102222
2018-03-21T11:24:59.941Z,102211
2018-03-21T11:27:28.260Z,102211
2018-03-21T11:29:56.581Z,102218
2018-03-21T11:32:24.932Z,102212
2018-03-21T11:34:54.064Z,102208
2018-03-21T11:37:22.416Z,102206
2018-03-21T11:39:51.615Z,102211
2018-03-21T11:42:21.019Z,102214
2018-03-21T11:44:51.206Z,102210
2018-03-21T11:47:19.657Z,102212
2018-03-21T11:49:48.156Z,102216
2018-03-21T11:52:16.453Z,102214
2018-03-21T11:54:46.723Z,102210
2018-03-21T11:57:15.068Z,102204
2018-03-21T11:59:44.191Z,102203
2018-03-21T12:02:12.496Z,102202
2018-03-21T12:04:40.822Z,102196
2018-03-21T12:07:09.888Z,102191
2018-03-21T12:09:38.324Z,102182
2018-03-21T12:12:06.887Z,102183
2018-03-21T12:14:36.110Z,102177
2018-03-21T12:17:05.941Z,102173
2018-03-21T12:19:34.325Z,102165
2018-03-21T12:22:02.813Z,102160
2018-03-21T12:24:31.157Z,102159
2018-03-21T12:26:59.487Z,102155
2018-03-21T12:29:27.971Z,102151
2018-03-21T12:31:56.312Z,102149
2018-03-21T12:34:24.743Z,102132
2018-03-21T12:36:53.842Z,102137
2018-03-21T12:39:22.918Z,102150
2018-03-21T12:41:52.058Z,102142
2018-03-21T12:44:20.365Z,102153
2018-03-21T12:46:49.712Z,102159
2018-03-21T12:49:20.017Z,102153
2018-03-21T12:51:49.212Z,102143
2018-03-21T12:54:17.567Z,102146
2018-03-21T12:56:46.076Z,102151
2018-03-21T12:59:15.166Z,102151
2018-03-21T13:01:43.607Z,102143
2018-03-21T13:04:11.886Z,102138
2018-03-21T13:06:40.410Z,102129
2018-03-21T13:09:09.678Z,102124
2018-03-21T13:11:38.317Z,102120
2018-03-21T13:14:06.637Z,102134
2018-03-21T13:16:35.143Z,102131
2018-03-21T13:19:03.668Z,102123
2018-03-21T13:21:32.030Z,102116
2018-03-21T13:24:00.387Z,102111
2018-03-21T13:26:29.452Z,102118
2018-03-21T13:28:57.814Z,102123
2018-03-21T13:31:26.375Z,102121
2018-03-21T13:33:54.775Z,102115
2018-03-21T13:36:23.156Z,102114
2018-03-21T13:38:51.498Z,102117
2018-03-21T13:41:19.843Z,102108
2018-03-21T13:43:48.163Z,102098
2018-03-21T13:46:16.517Z,102091
2018-03-21T13:48:46.023Z,102088
2018-03-21T13:51:16.482Z,102092
2018-03-21T13:53:44.800Z,102101
2018-03-21T13:56:13.332Z,102094
2018-03-21T13:58:41.688Z,102092
2018-03-21T14:01:10.761Z,102099
2018-03-21T14:03:39.136Z,102089
2018-03-21T14:06:08.261Z,102094
2018-03-21T14:08:37.395Z,102086
2018-03-21T14:11:05.833Z,102077
2018-03-21T14:13:34.335Z,102079
2018-03-21T14:16:02.865Z,102074
2018-03-21T14:18:31.436Z,102061
2018-03-21T14:20:59.765Z,102073
2018-03-21T14:23:28.109Z,102078
2018-03-21T14:25:56.451Z,102073
2018-03-21T14:28:24.784Z,102081
2018-03-21T14:30:54.027Z,102072
2018-03-21T14:33:22.469Z,102074
2018-03-21T14:35:50.777Z,102070
2018-03-21T14:38:19.202Z,102071
2018-03-21T14:40:48.397Z,102068
2018-03-21T14:43:16.794Z,102063
2018-03-21T14:45:45.908Z,102056
2018-03-21T14:48:14.297Z,102048
2018-03-21T14:50:42.731Z,102049
2018-03-21T14:53:11.084Z,102045
2018-03-21T14:55:39.659Z,102037
2018-03-21T14:58:08.012Z,102035
2018-03-21T15:00:36.361Z,102024
2018-03-21T15:03:05.471Z,102026
2018-03-21T15:05:33.947Z,102029
2018-03-21T15:08:03.051Z,102025
2018-03-21T15:10:31.641Z,102014
2018-03-21T15:12:59.958Z,102014
2018-03-21T15:15:28.277Z,102010
2018-03-21T15:17:57.599Z,102003
2018-03-21T15:20:28.038Z,101996
2018-03-21T15:22:56.581Z,101985
2018-03-21T15:25:25.013Z,101979
2018-03-21T15:27:53.323Z,101977
2018-03-21T15:30:22.556Z,101971
2018-03-21T15:32:51.188Z,101969
2018-03-21T15:35:19.745Z,101966
2018-03-21T15:37:48.309Z,101955
2018-03-21T15:40:16.862Z,101960
2018-03-21T15:42:46.169Z,101954
2018-03-21T15:45:15.474Z,101952
2018-03-21T15:47:43.808Z,101951
2018-03-21T15:50:12.167Z,101942
2018-03-21T15:52:42.058Z,101947
2018-03-21T15:55:10.548Z,101944
2018-03-21T15:57:38.986Z,101947
2018-03-21T16:00:07.406Z,101944
2018-03-21T16:02:35.717Z,101942
2018-03-21T16:05:04.372Z,101945
2018-03-21T16:07:32.824Z,101941
2018-03-21T16:10:01.403Z,101942
2018-03-21T16:12:30.582Z,101945
2018-03-21T16:14:59.707Z,101948
2018-03-21T16:17:28.099Z,101948
2018-03-21T16:19:56.567Z,101944
2018-03-21T16:22:24.883Z,101948
2018-03-21T16:24:53.332Z,101940
2018-03-21T16:27:21.746Z,101942
2018-03-21T16:29:50.319Z,101947
2018-03-21T16:32:18.787Z,101955
2018-03-21T16:34:47.278Z,101958
2018-03-21T16:37:15.608Z,101958
2018-03-21T16:39:44.834Z,101957
2018-03-21T16:42:13.230Z,101957
2018-03-21T16:44:41.623Z,101960
2018-03-21T16:47:10.152Z,101963
2018-03-21T16:49:39.459Z,101956
2018-03-21T16:52:08.687Z,101955
2018-03-21T16:54:38.092Z,101956
2018-03-21T16:57:06.465Z,101962
2018-03-21T16:59:34.814Z,101954
2018-03-21T17:02:03.930Z,101947
2018-03-21T17:04:32.308Z,101949
2018-03-21T17:07:00.914Z,101946
2018-03-21T17:09:29.403Z,101953
2018-03-21T17:11:57.892Z,101943
2018-03-21T17:14:26.215Z,101941
2018-03-21T17:16:55.409Z,101947
2018-03-21T17:19:24.634Z,101941
2018-03-21T17:21:53.102Z,101936
2018-03-21T17:24:21.695Z,101930
2018-03-21T17:26:50.082Z,101928
2018-03-21T17:29:18.557Z,101929
2018-03-21T17:31:47.744Z,101933
2018-03-21T17:34:16.103Z,101939
2018-03-21T17:36:45.242Z,101934
2018-03-21T17:39:13.560Z,101934
2018-03-21T17:41:42.212Z,101928
2018-03-21T17:44:10.604Z,101933
2018-03-21T17:46:39.120Z,101933
2018-03-21T17:49:07.564Z,101926
2018-03-21T17:51:36.156Z,101923
2018-03-21T17:54:05.942Z,101918
2018-03-21T17:56:34.392Z,101916
2018-03-21T17:59:02.792Z,101918
2018-03-21T18:01:31.183Z,101917
2018-03-21T18:03:59.692Z,101914
2018-03-21T18:06:28.130Z,101911
2018-03-21T18:08:56.661Z,101897
2018-03-21T18:11:25.046Z,101885
2018-03-21T18:13:54.586Z,101882
2018-03-21T18:16:22.969Z,101886
2018-03-21T18:18:51.394Z,101890
2018-03-21T18:21:20.658Z,101898
2018-03-21T18:23:50.454Z,101897
2018-03-21T18:26:18.793Z,101899
2018-03-21T18:28:47.164Z,101910
2018-03-21T18:31:16.132Z,101906
2018-03-21T18:33:44.583Z,101908
2018-03-21T18:36:13.674Z,101899
2018-03-21T18:38:42.054Z,101906
2018-03-21T18:41:10.655Z,101905
2018-03-21T18:43:39.255Z,101904
2018-03-21T18:46:07.924Z,101903
2018-03-21T18:48:36.409Z,101899
2018-03-21T18:51:04.818Z,101899
2018-03-21T18:53:33.272Z,101894
2018-03-21T18:56:01.675Z,101890
2018-03-21T18:58:30.025Z,101887
2018-03-21T19:00:58.562Z,101892
2018-03-21T19:03:27.705Z,101884
2018-03-21T19:05:56.041Z,101887
2018-03-21T19:08:25.246Z,101883
2018-03-21T19:10:53.657Z,101884
2018-03-21T19:13:22.300Z,101885
2018-03-21T19:15:51.495Z,101887
2018-03-21T19:18:20.777Z,101881
2018-03-21T19:20:49.140Z,101882
2018-03-21T19:23:18.454Z,101878
2018-03-21T19:25:46.810Z,101882
2018-03-21T19:28:15.703Z,101879
2018-03-21T19:30:44.173Z,101875
2018-03-21T19:33:12.994Z,101876
2018-03-21T19:35:41.567Z,101873
2018-03-21T19:38:09.993Z,101866
2018-03-21T19:40:38.692Z,101863
2018-03-21T19:43:07.087Z,101859
2018-03-21T19:45:35.550Z,101861
2018-03-21T19:48:04.492Z,101860
2018-03-21T19:50:33.123Z,101853
2018-03-21T19:53:01.626Z,101852
2018-03-21T19:55:30.209Z,101845
2018-03-21T19:57:58.868Z,101849
2018-03-21T20:00:27.292Z,101841
2018-03-21T20:02:56.550Z,101840
2018-03-21T20:05:25.881Z,101833
2018-03-21T20:07:54.339Z,101823
2018-03-21T20:10:22.728Z,101820
2018-03-21T20:12:51.196Z,101807
2018-03-21T20:15:19.693Z,101809
2018-03-21T20:17:48.210Z,101802
2018-03-21T20:20:16.668Z,101802
2018-03-21T20:22:45.150Z,101794
2018-03-21T20:25:14.794Z,101794
2018-03-21T20:27:44.076Z,101801
2018-03-21T20:30:13.403Z,101790
2018-03-21T20:32:41.757Z,101794
2018-03-21T20:35:10.255Z,101785
2018-03-21T20:37:39.335Z,101785
2018-03-21T20:40:07.748Z,101784
2018-03-21T20:42:36.235Z,101788
2018-03-21T20:45:04.928Z,101788
2018-03-21T20:47:33.411Z,101792
2018-03-21T20:50:01.880Z,101793
2018-03-21T20:52:30.255Z,101787
2018-03-21T20:54:58.852Z,101786
2018-03-21T20:57:27.230Z,101777
2018-03-21T20:59:55.796Z,101770
2018-03-21T21:02:24.616Z,101773
2018-03-21T21:04:53.280Z,101778
2018-03-21T21:07:21.686Z,101778
2018-03-21T21:09:50.203Z,101775
2018-03-21T21:12:18.585Z,101772
2018-03-21T21:14:47.711Z,101765
2018-03-21T21:17:16.317Z,101764
2018-03-21T21:19:45.041Z,101767
2018-03-21T21:22:14.445Z,101759
2018-03-21T21:24:42.812Z,101757
2018-03-21T21:27:11.183Z,101754
2018-03-21T21:29:39.592Z,101752
2018-03-21T21:32:08.942Z,101748
2018-03-21T21:34:37.370Z,101740
2018-03-21T21:37:06.631Z,101735
2018-03-21T21:39:35.079Z,101735
2018-03-21T21:42:03.392Z,101730
2018-03-21T21:44:31.899Z,101728
2018-03-21T21:47:00.278Z,101734
2018-03-21T21:49:29.484Z,101726
2018-03-21T21:51:58.679Z,101728
2018-03-21T21:54:27.719Z,101726
2018-03-21T21:56:56.237Z,101722
2018-03-21T21:59:24.761Z,101714
2018-03-21T22:01:53.148Z,101712
2018-03-21T22:04:21.413Z,101711
2018-03-21T22:06:49.738Z,101708
2018-03-21T22:09:18.163Z,101700
2018-03-21T22:11:47.331Z,101697
2018-03-21T22:14:17.217Z,101701
2018-03-21T22:16:45.584Z,101690
2018-03-21T22:19:13.918Z,101694
2018-03-21T22:21:42.987Z,101691
2018-03-21T22:24:11.321Z,101680
2018-03-21T22:26:39.614Z,101678
2018-03-21T22:29:09.678Z,101675
2018-03-21T22:31:38.900Z,101674
2018-03-21T22:34:07.344Z,101666
2018-03-21T22:36:35.855Z,101673
2018-03-21T22:39:04.975Z,101658
2018-03-21T22:41:33.253Z,101661
2018-03-21T22:44:01.622Z,101657
2018-03-21T22:46:29.969Z,101648
2018-03-21T22:48:59.383Z,101647
2018-03-21T22:51:28.500Z,101645
2018-03-21T22:53:56.884Z,101641
2018-03-21T22:56:25.419Z,101634
2018-03-21T22:58:54.548Z,101632
2018-03-21T23:01:22.889Z,101621
2018-03-21T23:03:51.191Z,101615
2018-03-21T23:06:19.610Z,101618
2018-03-21T23:08:48.200Z,101610
2018-03-21T23:11:16.537Z,101610
2018-03-21T23:13:44.869Z,101608
2018-03-21T23:16:13.144Z,101606
2018-03-21T23:18:41.439Z,101605
2018-03-21T23:21:10.533Z,101598
2018-03-21T23:23:38.845Z,101592
2018-03-21T23:26:07.199Z,101595
2018-03-21T23:28:36.265Z,101594
2018-03-21T23:31:06.039Z,101592
2018-03-21T23:33:34.381Z,101586
2018-03-21T23:36:03.414Z,101589
2018-03-21T23:38:31.715Z,101579
2018-03-21T23:41:00.406Z,101575
2018-03-21T23:43:28.753Z,101586
2018-03-21T23:45:57.055Z,101583
2018-03-21T23:48:25.370Z,101576
2018-03-21T23:50:54.601Z,101575
2018-03-21T23:53:22.916Z,101576
2018-03-21T23:55:51.221Z,101569
2018-03-21T23:58:20.295Z,101564
